Time;durP1;ratioP1;P1;durP2;ratioP2;P2;SDS_P1;SDS_P2;PMS_P1;PMS_P2;Temp;Humidity;BMP_temperature;BMP_pressure;BME280_temperature;BME280_humidity;BME280_pressure;Samples;Min_cycle;Max_cycle;Signal;HPM_P1;HPM_P2
2021/07/19 02:17:01;;;;;;;416.50;400.00;;;13.60;99.90;;;;;;3039341;23;20566;-82
2021/07/19 02:19:35;;;;;;;426.33;408.53;;;13.50;99.90;;;;;;4884335;29;20491;-82
2021/07/19 02:22:02;;;;;;;420.67;403.47;;;13.60;99.90;;;;;;4882216;29;20515;-82
2021/07/19 02:24:42;;;;;;;;;;;;;;;;;;;;;
2021/07/19 02:27:19;;;;;;;;;;;;;;;;;;;;;
2021/07/19 02:29:49;;;;;;;415.97;399.10;;;13.60;99.90;;;;;;4880986;29;20466;-82
2021/07/19 02:32:18;;;;;;;427.73;410.73;;;13.60;99.90;;;;;;4881816;29;20565;-81
2021/07/19 02:34:47;;;;;;;408.53;392.13;;;13.50;99.90;;;;;;4881829;29;20463;-82
2021/07/19 02:37:14;;;;;;;422.03;404.83;;;13.50;99.90;;;;;;4882046;29;20468;-82
2021/07/19 02:39:42;;;;;;;419.37;402.30;;;13.40;99.90;;;;;;4881753;29;20463;-83
2021/07/19 02:42:10;;;;;;;426.03;408.60;;;13.40;99.90;;;;;;4881568;29;20972;-83
2021/07/19 02:44:38;;;;;;;420.57;403.90;;;13.50;99.90;;;;;;4880684;29;20460;-82
2021/07/19 02:47:06;;;;;;;417.27;400.43;;;13.60;99.90;;;;;;4881031;29;20459;-82
2021/07/19 02:49:36;;;;;;;416.77;400.00;;;13.60;99.90;;;;;;4881619;29;20503;-82
2021/07/19 02:52:03;;;;;;;416.13;399.00;;;13.50;99.90;;;;;;4881516;29;20490;-82
2021/07/19 02:54:31;;;;;;;425.03;408.33;;;13.40;99.90;;;;;;4878096;29;20544;-81
2021/07/19 03:00:20;;;;;;;424.83;407.23;;;13.60;99.90;;;;;;4869507;23;20571;-83
2021/07/19 03:02:51;;;;;;;424.60;407.43;;;13.40;99.90;;;;;;4879899;29;20464;-82
2021/07/19 03:05:23;;;;;;;428.17;410.73;;;13.40;99.90;;;;;;4881453;29;20563;-81
2021/07/19 03:07:54;;;;;;;423.53;406.73;;;13.50;99.90;;;;;;4881246;29;20463;-79
2021/07/19 03:10:23;;;;;;;416.17;399.70;;;13.50;99.90;;;;;;4881162;29;20968;-79
2021/07/19 03:12:54;;;;;;;415.10;397.80;;;13.50;99.90;;;;;;4879926;29;20606;-77
2021/07/19 03:15:23;;;;;;;404.13;388.03;;;13.50;99.90;;;;;;4880963;29;20456;-78
2021/07/19 03:17:52;;;;;;;403.30;386.73;;;13.40;99.90;;;;;;4881002;29;20503;-79
2021/07/19 03:20:20;;;;;;;410.90;394.70;;;13.50;99.90;;;;;;4881029;29;20462;-80
2021/07/19 03:22:48;;;;;;;430.37;412.17;;;13.40;99.90;;;;;;4880915;29;20492;-81
2021/07/19 03:25:17;;;;;;;431.93;414.50;;;13.30;99.90;;;;;;4880862;29;20534;-80
2021/07/19 03:27:44;;;;;;;419.03;401.83;;;13.30;99.90;;;;;;4879546;29;20460;-80
2021/07/19 03:30:13;;;;;;;437.43;420.07;;;13.20;99.90;;;;;;4880830;29;20471;-78
2021/07/19 03:32:41;;;;;;;447.07;429.67;;;13.20;99.90;;;;;;4880640;29;20491;-83
2021/07/19 03:35:09;;;;;;;457.40;438.63;;;13.20;99.90;;;;;;4880715;29;20460;-82
2021/07/19 03:37:39;;;;;;;422.77;406.23;;;13.30;99.90;;;;;;4880682;29;20959;-78
2021/07/19 03:40:08;;;;;;;419.03;402.27;;;13.30;99.90;;;;;;4880547;29;20968;-82
2021/07/19 03:42:36;;;;;;;432.40;415.30;;;13.40;99.90;;;;;;4879327;29;20585;-80
2021/07/19 03:45:04;;;;;;;454.97;436.17;;;13.40;99.90;;;;;;4880528;29;20456;-79
2021/07/19 03:50:54;;;;;;;471.83;453.43;;;13.50;99.90;;;;;;4880257;29;20435;-83
2021/07/19 03:53:22;;;;;;;439.03;421.63;;;13.50;99.90;;;;;;4880352;29;20492;-79
2021/07/19 03:55:51;;;;;;;441.87;424.23;;;13.50;99.90;;;;;;4880192;29;20466;-79
2021/07/19 03:58:18;;;;;;;446.93;428.60;;;13.50;99.90;;;;;;4878167;29;20460;-80
2021/07/19 04:00:46;;;;;;;450.27;431.33;;;13.40;99.90;;;;;;4880095;29;20496;-77
2021/07/19 04:03:18;;;;;;;439.07;420.17;;;13.40;99.90;;;;;;4880195;29;20464;-80
2021/07/19 04:05:48;;;;;;;444.73;427.00;;;13.40;99.90;;;;;;4880094;29;20463;-81
2021/07/19 04:08:16;;;;;;;442.50;424.53;;;13.40;99.90;;;;;;4876054;29;20969;-80
2021/07/19 04:10:44;;;;;;;436.77;419.10;;;13.50;99.90;;;;;;4869165;29;20878;-80
2021/07/19 04:13:12;;;;;;;422.53;405.50;;;13.40;99.90;;;;;;4861438;29;20493;-81
2021/07/19 04:15:45;;;;;;;439.67;421.17;;;13.30;99.90;;;;;;4861142;29;20460;-80
2021/07/19 04:18:12;;;;;;;430.50;413.07;;;13.20;99.90;;;;;;4861659;29;20465;-77
2021/07/19 04:20:40;;;;;;;429.23;411.53;;;13.20;99.90;;;;;;4861301;29;20465;-80
2021/07/19 04:23:09;;;;;;;421.83;404.43;;;13.20;99.90;;;;;;4862017;29;20469;-79
2021/07/19 04:25:37;;;;;;;436.23;418.80;;;13.30;99.90;;;;;;4861218;29;20464;-77
2021/07/19 04:28:06;;;;;;;443.83;425.70;;;13.30;99.90;;;;;;4859988;29;21020;-80
2021/07/19 05:09:24;;;;;;;462.30;441.80;;;14.50;99.90;;;;;;5169829;24;20928;-80
2021/07/19 05:12:09;;;;;;;468.27;447.40;;;14.60;99.90;;;;;;4860705;29;20473;-82
2021/07/19 05:35:26;;;;;;;449.87;430.87;;;16.00;99.90;;;;;;4995249;23;20524;-78
2021/07/19 05:37:53;;;;;;;422.87;405.70;;;16.20;99.90;;;;;;4894366;29;20451;-77
2021/07/19 05:40:20;;;;;;;357.87;343.63;;;16.40;99.90;;;;;;4897597;29;20459;-79
2021/07/19 05:42:47;;;;;;;317.20;304.33;;;16.50;99.90;;;;;;4896451;29;20459;-77
2021/07/19 05:45:15;;;;;;;375.40;361.20;;;16.60;99.90;;;;;;4896923;29;20459;-78
2021/07/19 05:47:42;;;;;;;319.03;306.83;;;16.80;99.90;;;;;;4897446;29;20455;-78
2021/07/19 06:38:22;;;;;;;36.17;13.83;;;18.50;77.90;;;;;;4739083;29;20494;-80
2021/07/19 06:40:49;;;;;;;35.13;12.10;;;18.70;79.10;;;;;;4840799;29;20476;-84
2021/07/19 06:43:31;;;;;;;36.07;9.93;;;18.80;70.70;;;;;;4843466;29;20458;-86
2021/07/19 06:45:58;;;;;;;32.73;9.80;;;18.80;63.90;;;;;;4844437;29;20827;-83
2021/07/19 06:48:25;;;;;;;31.67;10.90;;;18.70;60.70;;;;;;4844445;29;20894;-87
2021/07/19 06:50:55;;;;;;;31.27;10.13;;;19.00;60.90;;;;;;4844908;29;20548;-84
2021/07/19 06:53:21;;;;;;;33.10;9.70;;;19.00;60.90;;;;;;4843954;29;20481;-80
2021/07/19 06:55:55;;;;;;;35.90;9.63;;;19.00;54.50;;;;;;4857615;29;20265;-90
2021/07/19 06:59:00;;;;;;;36.47;10.50;;;18.90;52.30;;;;;;4861782;29;20457;-91
2021/07/19 07:01:28;;;;;;;32.33;9.10;;;19.30;55.10;;;;;;4859657;29;20468;-81
2021/07/19 07:03:55;;;;;;;37.63;8.60;;;19.50;53.10;;;;;;4863001;29;20468;-82
2021/07/19 07:06:24;;;;;;;43.90;7.93;;;19.50;47.90;;;;;;4862797;29;20464;-82
2021/07/19 07:08:51;;;;;;;36.37;8.97;;;19.60;44.00;;;;;;4870603;29;20460;-83
2021/07/19 07:11:18;;;;;;;37.03;8.97;;;19.60;50.70;;;;;;4865667;29;20453;-80
2021/07/19 07:13:48;;;;;;;33.97;7.70;;;19.70;47.70;;;;;;4861298;29;20582;-84
2021/07/19 07:23:13;;;;;;;34.07;7.70;;;20.10;43.40;;;;;;4861551;29;20568;-89
2021/07/19 07:26:16;;;;;;;39.20;8.73;;;20.20;44.50;;;;;;4843742;29;20548;-92
2021/07/19 07:32:26;;;;;;;32.83;7.33;;;20.70;38.70;;;;;;4763220;30;20489;-90
2021/07/19 07:38:51;;;;;;;;;;;;;;;;;;;;;
2021/07/19 08:28:36;;;;;;;37.60;8.10;;;20.70;26.50;;;;;;4785812;29;20595;-87
2021/07/19 08:31:04;;;;;;;40.00;9.13;;;20.70;27.50;;;;;;4756949;29;20531;-77
2021/07/19 08:33:31;;;;;;;40.40;9.93;;;20.90;27.70;;;;;;4822556;29;20493;-78
2021/07/19 08:41:09;;;;;;;42.20;9.57;;;20.60;27.40;;;;;;1200708;27;20506;-81
2021/07/19 08:43:36;;;;;;;44.07;10.20;;;20.70;26.30;;;;;;4878081;29;20531;-81
2021/07/19 08:52:51;;;;;;;39.73;10.70;;;21.20;24.60;;;;;;4799357;29;20294;-86
2021/07/19 08:55:19;;;;;;;44.43;10.20;;;21.70;23.20;;;;;;4852503;29;20934;-83
2021/07/19 08:57:50;;;;;;;40.47;8.90;;;22.10;22.90;;;;;;4878565;29;20575;-85
2021/07/19 09:00:20;;;;;;;48.03;8.83;;;21.90;22.00;;;;;;4879479;29;20463;-82
2021/07/19 09:02:49;;;;;;;41.27;8.83;;;22.00;21.50;;;;;;4879610;29;20499;-82
2021/07/19 09:05:15;;;;;;;47.10;10.00;;;22.10;21.30;;;;;;4879329;29;20463;-81
2021/07/19 09:07:43;;;;;;;41.53;10.33;;;22.10;23.20;;;;;;4885805;29;20462;-82
2021/07/19 09:10:12;;;;;;;45.93;11.27;;;22.30;22.30;;;;;;4897985;29;20466;-83
2021/07/19 09:12:42;;;;;;;42.77;9.13;;;22.30;21.40;;;;;;4896857;29;20531;-83
2021/07/19 09:15:11;;;;;;;44.07;9.87;;;22.10;21.20;;;;;;4897822;29;20512;-84
2021/07/19 09:17:41;;;;;;;42.20;8.60;;;22.10;21.20;;;;;;4897951;29;20459;-83
2021/07/19 09:20:13;;;;;;;42.77;11.40;;;22.30;22.10;;;;;;4897945;29;20486;-84
2021/07/19 09:22:40;;;;;;;43.33;9.87;;;21.90;21.10;;;;;;4897742;29;20459;-81
2021/07/19 09:25:10;;;;;;;43.30;8.23;;;21.50;20.80;;;;;;4891673;29;20521;-78
2021/07/19 09:34:18;;;;;;;42.50;8.47;;;21.10;22.60;;;;;;4832960;29;20525;-84
2021/07/19 09:43:18;;;;;;;42.43;10.13;;;20.90;23.70;;;;;;4630722;30;20467;-80
2021/07/19 09:45:46;;;;;;;38.77;8.90;;;21.10;23.80;;;;;;4749934;30;20462;-80
2021/07/19 09:48:14;;;;;;;40.03;7.57;;;21.00;23.70;;;;;;4764374;29;20461;-85
2021/07/19 09:50:44;;;;;;;37.27;8.63;;;21.00;24.20;;;;;;4860480;29;20464;-83
2021/07/19 09:53:11;;;;;;;39.73;8.80;;;20.80;23.80;;;;;;4860486;29;20467;-83
2021/07/19 09:55:38;;;;;;;41.40;7.93;;;20.90;23.60;;;;;;4862090;29;20514;-84
2021/07/19 09:58:05;;;;;;;42.57;8.80;;;21.00;22.80;;;;;;4862802;29;20460;-83
2021/07/19 10:00:35;;;;;;;46.63;9.73;;;21.20;23.10;;;;;;4864087;29;20434;-81
2021/07/19 10:03:17;;;;;;;45.83;10.00;;;21.80;21.00;;;;;;4864034;29;20456;-83
2021/07/19 10:05:44;;;;;;;45.63;10.60;;;22.00;21.10;;;;;;4862530;29;20468;-83
2021/07/19 10:08:20;;;;;;;45.43;9.30;;;21.80;21.20;;;;;;4873785;29;20971;-84
2021/07/19 10:10:47;;;;;;;44.70;10.27;;;21.90;21.10;;;;;;4889505;29;20459;-80
2021/07/19 10:13:16;;;;;;;48.17;11.67;;;21.80;21.00;;;;;;4881449;29;20471;-85
2021/07/19 10:15:45;;;;;;;47.80;12.30;;;21.50;21.70;;;;;;4882257;29;20498;-84
2021/07/19 10:18:12;;;;;;;53.23;11.73;;;21.40;22.00;;;;;;4882281;29;20467;-88
2021/07/19 10:20:40;;;;;;;47.40;11.07;;;21.40;24.30;;;;;;4882369;29;20467;-89
2021/07/19 10:23:11;;;;;;;51.43;13.53;;;21.30;24.00;;;;;;4886252;29;20474;-86
2021/07/19 10:32:08;;;;;;;51.13;9.27;;;21.30;24.00;;;;;;4838971;29;20480;-91
2021/07/19 10:35:01;;;;;;;;;;;;;;;;;;;;;
2021/07/19 10:38:02;;;;;;;42.80;8.33;;;21.20;24.80;;;;;;4842990;29;20826;-87
2021/07/19 10:44:36;;;;;;;;;;;;;;;;;;;;;
2021/07/19 10:47:28;;;;;;;49.27;11.50;;;21.90;21.80;;;;;;4880413;29;20550;-90
2021/07/19 10:50:27;;;;;;;44.70;10.80;;;22.30;21.30;;;;;;4882334;29;20481;-86
2021/07/19 10:56:24;;;;;;;;;;;;;;;;;;;;;
2021/07/19 10:59:08;;;;;;;47.20;14.90;;;22.30;19.70;;;;;;4881194;29;20846;-84
2021/07/19 11:05:27;;;;;;;53.13;12.77;;;22.70;19.20;;;;;;4878540;29;20948;-88
2021/07/19 11:08:45;;;;;;;53.90;12.50;;;23.10;18.00;;;;;;4884389;29;20464;-86
2021/07/19 11:11:34;;;;;;;55.27;12.57;;;22.60;16.60;;;;;;4815995;29;20476;-90
2021/07/19 11:14:34;;;;;;;55.33;12.97;;;23.00;16.40;;;;;;4881001;29;20469;-86
2021/07/19 11:17:38;;;;;;;53.03;14.20;;;23.70;14.90;;;;;;4879572;29;20550;-88
2021/07/19 11:21:15;;;;;;;55.00;14.67;;;23.40;13.30;;;;;;4882352;29;20482;-88
2021/07/19 11:24:35;;;;;;;;;;;;;;;;;;;;;
2021/07/19 11:44:16;;;;;;;57.40;16.40;;;22.80;13.30;;;;;;4667081;30;20495;-89
2021/07/19 11:47:31;;;;;;;61.70;17.37;;;22.80;14.20;;;;;;4771215;29;20486;-86
2021/07/19 11:53:10;;;;;;;58.77;17.87;;;23.30;13.10;;;;;;4856391;29;20481;-89
2021/07/19 11:56:42;;;;;;;60.00;23.20;;;23.70;14.10;;;;;;4862497;29;20492;-89
2021/07/19 12:03:17;;;;;;;;;;;;;;;;;;;;;
2021/07/19 12:06:11;;;;;;;61.10;19.50;;;23.80;11.00;;;;;;4748716;30;20465;-83
2021/07/19 12:12:48;;;;;;;58.83;19.63;;;24.80;7.10;;;;;;4780448;29;20459;-82
2021/07/19 12:15:41;;;;;;;62.30;17.60;;;25.60;6.90;;;;;;4822852;29;21003;-82
2021/07/19 12:18:27;;;;;;;56.80;17.33;;;26.40;2.10;;;;;;4853069;29;20650;-82
2021/07/19 12:21:46;;;;;;;;;;;;;;;;;;;;;
2021/07/19 12:40:25;;;;;;;59.00;13.47;;;23.70;11.10;;;;;;4726844;30;20216;-82
2021/07/19 12:43:17;;;;;;;58.40;16.07;;;24.10;9.80;;;;;;4796910;29;20505;-82
2021/07/19 12:45:53;;;;;;;59.63;13.40;;;23.90;9.60;;;;;;4879596;29;20460;-83
2021/07/19 12:48:20;;;;;;;57.07;14.10;;;24.00;7.40;;;;;;4879456;29;20454;-79
2021/07/19 12:50:47;;;;;;;59.33;15.40;;;24.80;5.90;;;;;;4879644;29;20464;-79
2021/07/19 12:53:14;;;;;;;54.87;19.83;;;25.40;7.50;;;;;;4879417;29;20460;-79
2021/07/19 12:55:42;;;;;;;60.90;15.40;;;25.10;6.00;;;;;;4879558;29;20920;-79
2021/07/19 12:58:13;;;;;;;62.20;16.20;;;24.80;6.50;;;;;;4878204;29;20459;-78
2021/07/19 13:00:45;;;;;;;58.20;18.60;;;24.60;8.30;;;;;;4879519;29;20460;-85
2021/07/19 13:03:18;;;;;;;61.00;22.53;;;24.00;8.60;;;;;;4879292;29;20523;-87
2021/07/19 13:05:55;;;;;;;58.17;24.50;;;24.00;7.40;;;;;;4880877;29;20463;-86
2021/07/19 13:08:29;;;;;;;59.57;15.37;;;23.80;8.40;;;;;;4879979;29;20467;-87
2021/07/19 13:11:12;;;;;;;61.47;15.30;;;24.00;7.40;;;;;;4879242;29;20530;-84
2021/07/19 13:13:58;;;;;;;54.67;13.77;;;25.30;5.60;;;;;;4878707;29;20470;-86
2021/07/19 13:16:52;;;;;;;61.00;15.87;;;26.90;2.70;;;;;;4879211;29;20494;-85
2021/07/19 13:19:51;;;;;;;59.97;20.53;;;27.40;1.60;;;;;;4879778;29;20483;-86
2021/07/19 13:22:35;;;;;;;63.90;16.73;;;25.80;1.60;;;;;;4884778;29;20490;-86
2021/07/19 13:25:43;;;;;;;;;;;;;;;;;;;;;
2021/07/19 13:28:30;;;;;;;64.00;17.27;;;24.90;5.30;;;;;;4859990;29;20459;-86
2021/07/19 13:31:07;;;;;;;61.00;28.13;;;24.80;7.60;;;;;;4882214;29;20463;-86
2021/07/19 13:33:35;;;;;;;55.87;20.73;;;24.50;6.40;;;;;;4881265;29;20948;-86
2021/07/19 13:36:17;;;;;;;64.53;19.43;;;23.90;6.90;;;;;;4881610;29;20482;-85
2021/07/19 13:39:03;;;;;;;64.20;18.40;;;24.20;7.60;;;;;;4879347;29;20550;-85
2021/07/19 13:42:08;;;;;;;62.07;16.10;;;25.20;9.80;;;;;;4879501;29;20463;-85
2021/07/19 13:44:57;;;;;;;61.27;21.97;;;25.70;4.80;;;;;;4878682;29;20560;-84
2021/07/19 13:47:26;;;;;;;67.20;19.53;;;25.20;3.20;;;;;;4878959;29;20498;-85
2021/07/19 13:49:56;;;;;;;61.30;23.20;;;24.90;5.30;;;;;;4878990;29;20547;-84
2021/07/19 14:27:23;;;;;;;59.13;14.87;;;23.30;10.60;;;;;;4652805;30;20475;-85
2021/07/19 14:29:58;;;;;;;54.20;13.33;;;23.20;12.50;;;;;;4686800;30;20471;-84
2021/07/19 14:52:13;;;;;;;54.57;11.77;;;26.10;5.00;;;;;;5054345;27;21108;-83
2021/07/19 14:54:40;;;;;;;58.57;13.83;;;28.50;1.00;;;;;;5049269;28;20456;-79
2021/07/19 14:57:09;;;;;;;56.47;14.07;;;29.10;1.00;;;;;;5049665;28;20462;-79
2021/07/19 14:59:36;;;;;;;60.70;12.70;;;29.00;1.00;;;;;;5048141;28;20499;-80
2021/07/19 15:02:03;;;;;;;63.73;13.57;;;29.50;1.00;;;;;;5049124;28;20452;-79
2021/07/19 15:04:29;;;;;;;65.67;21.43;;;31.00;1.00;;;;;;5049460;28;20454;-80
2021/07/19 15:06:56;;;;;;;68.27;29.67;;;29.00;1.00;;;;;;5049444;28;20546;-79
2021/07/19 15:09:25;;;;;;;72.87;29.23;;;27.40;1.00;;;;;;5048760;28;20433;-79
2021/07/19 15:11:51;;;;;;;69.63;30.50;;;26.20;1.00;;;;;;5048984;28;20437;-79
2021/07/19 15:14:18;;;;;;;70.33;23.40;;;25.40;1.00;;;;;;5048081;28;20430;-79
2021/07/19 15:16:45;;;;;;;69.00;30.47;;;24.70;4.20;;;;;;5048639;28;20450;-78
2021/07/19 15:19:12;;;;;;;65.60;15.00;;;24.00;4.80;;;;;;5048937;28;20486;-78
2021/07/19 15:21:39;;;;;;;63.80;20.87;;;24.00;7.40;;;;;;5048980;28;21061;-78
2021/07/19 15:24:06;;;;;;;60.10;22.57;;;23.60;7.10;;;;;;5048654;28;20531;-78
2021/07/19 15:26:34;;;;;;;59.50;13.77;;;23.40;7.00;;;;;;5049532;28;20459;-78
2021/07/19 15:29:01;;;;;;;61.50;13.20;;;23.50;7.70;;;;;;5048081;28;20550;-79
2021/07/19 15:31:29;;;;;;;59.40;14.90;;;23.80;8.20;;;;;;5049539;28;20479;-80
2021/07/19 15:33:56;;;;;;;56.57;15.67;;;23.80;8.20;;;;;;5049304;28;20463;-79
2021/07/19 15:36:25;;;;;;;55.70;11.33;;;24.30;7.70;;;;;;5049521;28;20534;-78
2021/07/19 15:38:53;;;;;;;57.50;13.63;;;24.90;6.70;;;;;;5049435;28;20452;-79
2021/07/19 15:41:19;;;;;;;61.20;14.07;;;25.40;2.50;;;;;;5049387;28;20538;-79
2021/07/19 15:43:50;;;;;;;60.83;20.97;;;25.20;4.50;;;;;;5048141;28;20792;-79
2021/07/19 15:46:17;;;;;;;60.90;13.17;;;25.20;4.40;;;;;;5049185;28;20456;-79
2021/07/19 15:48:44;;;;;;;58.20;20.50;;;25.30;2.90;;;;;;5049117;28;20459;-79
2021/07/19 15:51:11;;;;;;;59.60;14.37;;;24.80;3.60;;;;;;5048869;28;20998;-79
2021/07/19 15:53:37;;;;;;;60.57;14.30;;;24.70;4.60;;;;;;5049190;28;20452;-80
2021/07/19 15:56:05;;;;;;;55.40;23.20;;;24.70;4.00;;;;;;5049129;28;20542;-79
2021/07/19 15:58:32;;;;;;;58.90;15.53;;;24.50;6.10;;;;;;5047771;28;20451;-79
2021/07/19 16:01:00;;;;;;;62.67;14.27;;;24.40;6.20;;;;;;5046768;28;20540;-79
2021/07/19 16:03:26;;;;;;;65.30;12.10;;;24.50;7.80;;;;;;5035508;28;20452;-78
2021/07/19 16:05:53;;;;;;;60.10;17.13;;;24.50;4.90;;;;;;5035693;28;20448;-78
2021/07/19 16:08:20;;;;;;;57.03;13.50;;;24.80;5.60;;;;;;5035865;28;20845;-79
2021/07/19 16:10:47;;;;;;;58.47;14.73;;;24.70;5.00;;;;;;5035424;28;20490;-79
2021/07/19 16:13:14;;;;;;;62.13;13.53;;;24.90;4.90;;;;;;5034195;28;20452;-79
2021/07/19 16:15:41;;;;;;;60.70;27.20;;;25.20;4.10;;;;;;5035378;28;20531;-78
2021/07/19 16:18:11;;;;;;;61.53;24.10;;;24.30;4.50;;;;;;5035268;28;20567;-79
2021/07/19 16:20:38;;;;;;;61.70;13.57;;;24.30;7.60;;;;;;5035570;28;20452;-79
2021/07/19 16:23:05;;;;;;;59.30;35.30;;;24.20;7.60;;;;;;5035168;28;20456;-79
2021/07/19 16:25:32;;;;;;;61.17;13.80;;;24.10;6.10;;;;;;5035237;28;20455;-79
2021/07/19 16:27:59;;;;;;;60.77;11.97;;;24.20;6.20;;;;;;5033866;28;20989;-78
2021/07/19 16:30:25;;;;;;;58.00;12.30;;;24.80;5.70;;;;;;5034992;28;20491;-79
2021/07/19 16:32:52;;;;;;;55.73;13.87;;;25.00;5.70;;;;;;5035137;28;20463;-79
2021/07/19 16:35:20;;;;;;;57.47;20.60;;;25.40;5.30;;;;;;5035044;28;20466;-78
2021/07/19 16:37:47;;;;;;;62.03;27.00;;;25.10;1.80;;;;;;5035244;28;21023;-79
2021/07/19 16:40:14;;;;;;;59.33;18.70;;;25.00;3.10;;;;;;5035093;28;20452;-79
2021/07/19 16:42:41;;;;;;;59.80;18.10;;;24.90;4.60;;;;;;5033768;28;20445;-78
2021/07/19 17:42:20;;;;;;;;;;;;;;;;;;;;;
2021/07/19 18:53:54;;;;;;;45.77;10.83;;;20.10;27.80;;;;;;4823435;29;20966;-86
2021/07/19 18:56:22;;;;;;;44.40;9.63;;;19.90;27.00;;;;;;4832116;29;20492;-81
2021/07/19 18:59:39;;;;;;;45.10;9.90;;;20.00;27.00;;;;;;4892239;29;20930;-84
2021/07/19 19:02:25;;;;;;;42.03;10.03;;;19.80;27.50;;;;;;4866773;29;20464;-83
2021/07/19 19:04:52;;;;;;;44.27;9.80;;;19.70;28.30;;;;;;4914593;29;20494;-83
2021/07/19 19:07:19;;;;;;;45.20;10.80;;;19.80;26.90;;;;;;4914430;29;20469;-83
2021/07/19 19:09:47;;;;;;;42.70;10.27;;;19.90;27.20;;;;;;4914379;29;20513;-83
2021/07/19 19:12:28;;;;;;;43.17;10.30;;;19.60;27.90;;;;;;4914341;29;20494;-82
2021/07/19 19:15:05;;;;;;;43.10;9.97;;;19.40;29.20;;;;;;4913224;29;20454;-82
2021/07/19 19:17:34;;;;;;;41.30;9.67;;;19.20;30.30;;;;;;4914363;29;20922;-81
2021/07/19 19:20:01;;;;;;;41.17;10.03;;;19.00;31.80;;;;;;4914243;29;21008;-81
2021/07/19 19:22:27;;;;;;;41.07;9.93;;;18.80;32.60;;;;;;4914454;29;20542;-79
2021/07/19 19:24:54;;;;;;;41.10;9.53;;;18.50;33.90;;;;;;4914258;29;20876;-80
2021/07/19 19:40:30;;;;;;;38.00;11.53;;;17.00;50.40;;;;;;4735574;30;20453;-85
2021/07/19 19:43:23;;;;;;;40.07;11.80;;;16.80;53.20;;;;;;4751989;30;20253;-85
2021/07/19 19:46:30;;;;;;;;;;;;;;;;;;;;;
2021/07/19 20:02:57;;;;;;;;;;;;;;;;;;;;;
2021/07/19 20:08:38;;;;;;;37.30;22.70;;;16.10;70.20;;;;;;4769526;30;20476;-85
2021/07/19 20:14:26;;;;;;;39.97;16.90;;;15.90;71.90;;;;;;4759668;30;20466;-86
2021/07/19 20:40:45;;;;;;;;;;;;;;;;;;;;;
2021/07/19 20:43:49;;;;;;;48.70;42.10;;;15.40;75.10;;;;;;4786383;29;21118;-86
2021/07/19 21:48:08;;;;;;;;;;;;;;;;;;;;;
2021/07/19 23:12:42;;;;;;;340.77;328.23;;;12.90;99.90;;;;;;4831559;29;20584;-87
2021/07/19 23:25:52;;;;;;;;;;;;;;;;;;;;;
2021/07/19 23:35:53;;;;;;;267.77;257.20;;;12.80;99.90;;;;;;4824180;29;20466;-87
2021/07/19 23:41:59;;;;;;;;;;;;;;;;;;;;;
